Latest Weather Observations for Maatsuyker Island

IDT60801

Issued at 8:01 pm EST Tuesday 1 September 2015 (issued every 30 minutes, with the page automatically refreshed every 10 minutes)

About weather observations | Map of weather stations | Latest weather observations for TAS | Other Formats
Station Details ID: 094041 Name: MAATSUYKER ISLAND LIGHTHOUSE Lat: -43.66 Lon: 146.27 Height: 146.5 m
Data from the previous 72 hours. | See also: Recent months at Maatsuyker Island
Date/Time
EST
Temp
°C
App
Temp
°C
Dew
Point
Rel
Hum
%
Delta-T
°C
Wind Press
QNH
hPa
Press
MSL
hPa
Rain
since 9 am
mm
Dir
 
Spd
km/h
Gust
km/h
Spd
kts
Gust
kts
01/08:00pm 7.6 - - - - WNW 7 11 4 6 1013.1 - 0.2
01/07:30pm 7.8 - - - - NW 6 15 3 8 1013.3 - 0.2
01/07:00pm 8.3 - - - - NNW 6 9 3 5 1013.7 - 0.2
01/06:30pm 8.3 - - - - NW 7 20 4 11 1013.4 - 0.2
01/06:00pm 8.3 - - - - WNW 6 9 3 5 1013.1 1013.2 0.2
01/05:30pm 8.6 - - - - NW 6 11 3 6 1013.1 - 0.2
01/05:00pm 9.5 - - - - NW 2 9 1 5 1013.2 - 0.2
01/04:30pm 9.8 - - - - CALM 0 6 0 3 1013.5 - 0.2
01/04:00pm 10.6 - - - - N 6 13 3 7 1013.4 - 0.2
01/03:30pm 11.1 - - - - NNW 4 9 2 5 1013.8 - 0.2
01/03:00pm 11.0 - - - - N 7 11 4 6 1013.9 1014.0 0.2
01/02:30pm 11.0 - - - - NNW 7 11 4 6 1014.0 - 0.2
01/02:00pm 11.0 - - - - NNW 7 15 4 8 1013.9 - 0.2
01/01:30pm 10.2 - - - - NNW 9 17 5 9 1014.0 - 0.0
01/01:00pm 9.6 - - - - NNW 7 13 4 7 1014.4 - 0.0
01/12:30pm 10.0 - - - - NNW 6 9 3 5 1014.9 - 0.0
01/12:00pm 8.8 - - - - NNE 6 13 3 7 1015.3 1015.5 0.0
01/11:30am 8.7 - - - - N 4 7 2 4 1015.7 - 0.0
01/11:00am 9.6 - - - - NNE 6 9 3 5 1015.9 - 0.0
01/10:30am 7.9 - - - - S 6 7 3 4 1016.1 - 0.0
01/10:00am 7.9 - - - - S 6 7 3 4 1016.5 - 0.0
01/09:30am 7.7 - - - - S 6 9 3 5 1016.5 - 0.0
01/09:00am 7.7 - - - - N 6 9 3 5 1016.6 1016.7 0.6
01/08:30am 7.7 - - - - ESE 6 11 3 6 1016.5 - 0.6
01/08:00am 7.6 - - - - SSE 2 9 1 5 1016.5 - 0.6
01/07:30am 7.2 - - - - E 2 6 1 3 1016.4 - 0.6
01/07:00am 7.0 - - - - CALM 0 0 0 0 1016.5 - 0.6
01/06:30am 6.9 - - - - NE 4 9 2 5 1016.2 - 0.6
01/06:00am 6.6 - - - - CALM 0 0 0 0 1016.4 1016.5 0.6
01/05:30am 6.8 - - - - ESE 2 6 1 3 1016.4 - 0.6
01/05:00am 6.5 - - - - NNE 2 7 1 4 1016.6 - 0.6
01/04:30am 6.9 - - - - ENE 7 11 4 6 1016.6 - 0.6
01/04:00am 6.6 - - - - NW 2 7 1 4 1016.8 - 0.6
01/03:30am 6.3 - - - - NNW 2 7 1 4 1016.6 - 0.6
01/03:00am 6.2 - - - - WNW 2 7 1 4 1016.9 1017.0 0.6
01/02:30am 6.0 - - - - NW 2 9 1 5 1017.3 - 0.6
01/02:00am 6.4 - - - - WNW 4 11 2 6 1017.6 - 0.6
01/01:30am 6.9 - - - - NW 6 9 3 5 1017.8 - 0.6
01/01:00am 6.8 - - - - WNW 6 9 3 5 1018.0 - 0.6
01/12:30am 7.0 - - - - WNW 4 11 2 6 1018.1 - 0.6
01/12:00am 7.1 - - - - NNW 7 11 4 6 1018.1 1018.3 0.6
 
Date/Time
EST
Temp
°C
App
Temp
°C
Dew
Point
Rel
Hum
%
Delta-T
°C
Wind Press
QNH
hPa
Press
MSL
hPa
Rain
since 9 am
mm
Dir
 
Spd
km/h
Gust
km/h
Spd
kts
Gust
kts
31/11:30pm 7.0 - - - - NNW 7 13 4 7 1018.3 - 0.6
31/11:00pm 7.4 - - - - NW 7 13 4 7 1018.6 - 0.6
31/10:30pm 7.6 - - - - NNW 7 13 4 7 1018.9 - 0.6
31/10:00pm 7.5 - - - - NW 7 17 4 9 1019.1 - 0.6
31/09:30pm 7.6 - - - - WNW 9 19 5 10 1019.2 - 0.6
31/09:00pm 7.7 - - - - NW 7 17 4 9 1019.3 1019.5 0.6
31/08:30pm 7.4 - - - - N 6 9 3 5 1019.5 - 0.6
31/08:00pm 7.5 - - - - WNW 11 17 6 9 1019.3 - 0.2
31/07:30pm 7.5 - - - - NW 7 13 4 7 1019.5 - 0.0
31/07:00pm 7.6 - - - - NW 7 13 4 7 1019.3 - 0.0
31/06:30pm 7.7 - - - - WNW 9 17 5 9 1019.1 - 0.0
31/06:00pm 7.8 - - - - NW 7 17 4 9 1019.1 1019.3 0.0
31/05:30pm 8.0 - - - - NNW 4 7 2 4 1019.3 - 0.0
31/05:00pm 8.1 - - - - N 6 9 3 5 1019.4 - 0.0
31/04:30pm 8.7 7.3 8.7 100 0.0 N 6 9 3 5 1019.7 - 0.0
31/04:00pm 8.9 7.9 8.9 100 0.0 NW 4 9 2 5 1019.7 - 0.0
31/03:30pm 8.9 7.5 8.9 100 0.0 NNW 6 9 3 5 1019.5 - 0.0
31/03:00pm 9.7 8.3 9.5 99 0.1 NNW 7 13 4 7 1019.6 1019.8 0.0
31/02:30pm 9.3 8.0 9.3 100 0.0 NW 6 11 3 6 1019.8 - 0.0
31/02:00pm 9.9 8.6 9.9 100 0.0 NW 7 13 4 7 1020.0 - 0.0
31/01:30pm 10.3 8.9 9.7 96 0.3 NNW 7 13 4 7 1020.4 - 0.0
31/01:00pm 9.7 8.4 9.3 97 0.2 NW 6 13 3 7 1020.5 - 0.0
31/12:30pm 9.8 8.6 9.6 99 0.1 NW 6 13 3 7 1020.7 - 0.0
31/12:00pm 9.8 8.4 8.8 93 0.5 NNW 6 11 3 6 1021.1 1021.4 0.0
31/11:30am 9.4 7.7 8.2 92 0.6 NNW 7 15 4 8 1021.5 - 0.0
31/11:00am 8.3 6.6 8.3 100 0.0 NW 7 13 4 7 1021.3 - 0.0
31/10:30am 8.4 6.7 8.4 100 0.0 NW 7 17 4 9 1021.4 - 0.0
31/10:00am 8.7 6.9 8.1 96 0.3 NW 7 13 4 7 1021.7 - 0.0
31/09:30am 7.6 5.5 6.7 94 0.4 NW 7 13 4 7 1021.8 - 0.0
31/09:00am 7.5 5.0 6.4 93 0.5 NW 9 17 5 9 1021.9 1022.2 1.6
31/08:30am 6.9 4.3 6.0 94 0.4 NW 9 15 5 8 1022.1 - 1.6
31/08:00am 6.5 4.4 6.5 100 0.0 NW 7 15 4 8 1022.1 - 1.6
31/07:30am 6.5 3.2 6.5 100 0.0 WNW 13 28 7 15 1021.6 - 1.6
31/07:00am 6.5 3.6 6.5 100 0.0 WNW 11 20 6 11 1021.5 - 1.4
31/06:30am 6.5 4.0 6.5 100 0.0 NNW 9 20 5 11 1021.7 - 1.4
31/06:00am 6.7 4.2 6.7 100 0.0 NNW 9 17 5 9 1021.6 1021.9 1.4
31/05:30am 6.3 4.3 6.3 100 0.0 NNW 6 17 3 9 1021.8 - 1.4
31/05:00am 6.7 4.7 6.3 97 0.2 NW 6 11 3 6 1022.1 - 1.0
31/04:30am 6.5 4.3 6.3 99 0.1 NNW 7 15 4 8 1022.2 - 1.0
31/04:00am 6.6 4.5 6.6 100 0.0 NNW 7 15 4 8 1022.3 - 1.0
31/03:30am 6.5 4.4 6.5 100 0.0 N 7 11 4 6 1022.4 - 1.0
31/03:00am 7.0 4.7 5.7 91 0.6 NNW 7 13 4 7 1022.5 1022.8 1.0
31/02:30am 7.2 5.0 6.1 93 0.5 NW 7 15 4 8 1022.7 - 1.0
31/02:00am 7.0 4.8 6.3 95 0.3 NNW 7 11 4 6 1023.1 - 1.0
31/01:30am 7.1 4.5 6.2 94 0.4 NNW 9 15 5 8 1023.5 - 1.0
31/01:00am 6.9 4.7 6.2 95 0.3 NNW 7 15 4 8 1023.5 - 1.0
31/12:30am 6.9 4.4 6.5 97 0.2 NW 9 19 5 10 1023.5 - 1.0
31/12:00am 6.9 4.1 6.9 100 0.0 WNW 11 24 6 13 1023.5 1023.7 1.0
 
Date/Time
EST
Temp
°C
App
Temp
°C
Dew
Point
Rel
Hum
%
Delta-T
°C
Wind Press
QNH
hPa
Press
MSL
hPa
Rain
since 9 am
mm
Dir
 
Spd
km/h
Gust
km/h
Spd
kts
Gust
kts
30/11:30pm 7.0 4.2 7.0 100 0.0 NW 11 20 6 11 1023.9 - 1.0
30/11:00pm 6.8 4.4 6.8 100 0.0 NNW 9 15 5 8 1024.4 - 0.8
30/10:30pm 6.8 4.4 6.8 100 0.0 NW 9 17 5 9 1024.5 - 0.6
30/10:00pm 7.1 4.7 7.1 100 0.0 NNW 9 17 5 9 1024.6 - 0.4
30/09:30pm 7.2 4.8 6.8 97 0.2 NNW 9 13 5 7 1024.6 - 0.4
30/09:00pm 7.1 4.7 6.9 99 0.1 NW 9 24 5 13 1024.6 1024.8 0.4
30/08:30pm 7.3 5.0 7.3 100 0.0 NW 9 15 5 8 1024.6 - 0.4
30/08:00pm 6.8 4.7 6.8 100 0.0 NNW 7 13 4 7 1024.6 - 0.4
30/07:30pm 7.0 5.2 7.0 100 0.0 NW 6 11 3 6 1024.8 - 0.4
30/07:00pm 7.1 5.1 7.1 100 0.0 NNW 7 17 4 9 1024.8 - 0.4
30/06:30pm 6.9 5.0 6.9 100 0.0 NNW 6 9 3 5 1024.6 - 0.4
30/06:00pm 7.3 5.3 6.9 97 0.2 NNW 7 11 4 6 1024.6 1024.8 0.4
30/05:30pm 7.5 5.8 7.5 100 0.0 NNW 6 11 3 6 1024.4 - 0.4
30/05:00pm 7.9 6.3 7.9 100 0.0 N 6 9 3 5 1024.4 - 0.4
30/04:30pm 7.9 6.7 7.9 100 0.0 NNW 4 7 2 4 1024.5 - 0.4
30/04:00pm 8.0 6.4 8.0 100 0.0 N 6 11 3 6 1024.6 - 0.4
30/03:30pm 8.1 6.0 8.1 100 0.0 NNE 9 28 5 15 1024.7 - 0.4
30/03:00pm 8.8 7.2 8.8 100 0.0 NNE 7 22 4 12 1024.8 1025.0 0.4
30/02:30pm 9.3 7.6 8.5 95 0.4 N 7 11 4 6 1024.8 - 0.4
30/02:00pm 9.3 7.7 8.1 92 0.6 NNW 6 11 3 6 1024.8 - 0.4
30/01:30pm 9.1 7.5 7.8 92 0.6 N 6 11 3 6 1024.9 - 0.4
30/01:00pm 8.1 6.5 8.1 100 0.0 NNW 6 9 3 5 1025.2 - 0.4
30/12:30pm 7.8 6.2 7.8 100 0.0 N 6 9 3 5 1025.4 - 0.0
30/12:00pm 7.5 6.1 7.3 99 0.1 NNW 4 7 2 4 1026.0 1026.2 0.0
30/11:30am 8.1 6.9 7.9 99 0.1 N 4 13 2 7 1026.4 - 0.0
30/11:00am 7.9 6.2 7.5 97 0.2 NNW 6 9 3 5 1026.4 - 0.0
30/10:30am 6.8 4.7 6.8 100 0.0 NNW 7 11 4 6 1026.6 - 0.0
30/10:00am 6.9 3.7 6.9 100 0.0 NE 13 35 7 19 1026.6 - 0.0
30/09:30am 7.1 4.3 7.1 100 0.0 NE 11 20 6 11 1026.8 - 0.0
30/09:00am 6.9 4.4 6.5 97 0.2 N 9 15 5 8 1026.6 1026.9 0.8
30/08:30am 6.3 3.4 6.3 100 0.0 NNE 11 30 6 16 1026.6 - 0.8
30/08:00am 6.2 3.5 5.8 97 0.2 N 9 20 5 11 1026.4 - 0.8
30/07:30am 6.1 2.6 5.4 95 0.3 NE 13 26 7 14 1026.2 - 0.8
30/07:00am 6.2 3.2 6.0 99 0.1 N 11 15 6 8 1026.0 - 0.8
30/06:30am 6.1 2.7 6.1 100 0.0 NNE 13 20 7 11 1025.8 - 0.6
30/06:00am 6.1 3.1 6.1 100 0.0 NNE 11 28 6 15 1025.9 1026.1 0.6
30/05:49am 6.2 2.5 6.2 100 0.0 NNE 15 26 8 14 1025.8 - 0.6
30/05:45am 6.3 -3.3 6.3 100 0.0 SSE 46 54 25 29 1025.6 - 0.4
30/05:44am 6.2 0.0 6.2 100 0.0 SE 28 52 15 28 1025.8 - 0.4
30/05:30am 6.4 1.4 6.4 100 0.0 ESE 22 35 12 19 1025.6 - 0.4
30/05:00am 5.9 3.3 5.9 100 0.0 NNE 9 20 5 11 1025.9 - 0.4
30/04:30am 6.0 3.8 6.0 100 0.0 N 7 19 4 10 1025.9 - 0.4
30/04:00am 6.2 1.7 6.2 100 0.0 ENE 19 32 10 17 1025.5 - 0.4
30/03:30am 6.9 2.0 6.9 100 0.0 ESE 22 39 12 21 1025.5 - 0.0
30/03:00am 7.1 3.5 6.7 97 0.2 E 15 28 8 15 1025.5 1025.7 0.0
30/02:30am 6.8 3.9 6.4 97 0.2 N 11 24 6 13 1025.8 - 0.0
30/02:00am 6.7 4.2 6.7 100 0.0 NE 9 15 5 8 1026.2 - 0.0
30/01:30am 6.6 0.5 6.4 99 0.1 SSE 28 41 15 22 1026.4 - 0.0
30/01:00am 6.6 1.4 5.7 94 0.4 ESE 22 39 12 21 1026.4 - 0.0
30/12:55am 6.6 0.3 5.5 93 0.5 ESE 28 37 15 20 1026.3 - 0.0
30/12:35am 6.6 -2.6 6.2 97 0.2 SSE 44 52 24 28 1026.3 - 0.0
30/12:30am 6.6 0.5 6.4 99 0.1 ESE 28 46 15 25 1026.4 - 0.0
30/12:27am 6.8 0.6 6.1 95 0.3 SE 28 46 15 25 1026.3 - 0.0
30/12:22am 6.6 -0.4 5.9 95 0.3 ESE 32 41 17 22 1026.3 - 0.0
30/12:00am 6.4 -2.6 6.4 100 0.0 SSE 43 50 23 27 1026.4 1026.7 0.0
 
Date/Time
EST
Temp
°C
App
Temp
°C
Dew
Point
Rel
Hum
%
Delta-T
°C
Wind Press
QNH
hPa
Press
MSL
hPa
Rain
since 9 am
mm
Dir
 
Spd
km/h
Gust
km/h
Spd
kts
Gust
kts
29/11:56pm 6.3 -2.8 6.1 99 0.1 SSE 43 50 23 27 1026.5 - 0.0
29/11:30pm 6.1 2.7 6.1 100 0.0 NNE 13 32 7 17 1026.7 - 0.0
29/11:00pm 5.8 1.6 5.8 100 0.0 SE 17 35 9 19 1026.9 - 0.0
29/10:34pm 6.2 0.0 6.2 100 0.0 SE 28 46 15 25 1026.9 - 0.0
29/10:30pm 6.3 1.7 6.3 100 0.0 E 20 32 11 17 1027.0 - 0.0
29/10:15pm 6.4 0.1 5.7 95 0.3 SE 28 46 15 25 1026.9 - 0.0
29/10:00pm 6.3 -0.9 6.1 99 0.1 SSE 33 44 18 24 1027.1 - 0.0
29/09:42pm 6.4 -0.5 6.4 100 0.0 ESE 32 43 17 23 1026.8 - 0.0
29/09:30pm 6.6 -2.4 6.6 100 0.0 SSE 43 54 23 29 1026.7 - 0.0
29/09:24pm 6.7 -1.1 6.7 100 0.0 SSE 37 48 20 26 1027.0 - 0.0
29/09:00pm 6.7 2.1 6.7 100 0.0 SE 20 35 11 19 1027.0 1027.3 0.0
29/08:59pm 6.7 3.5 6.7 100 0.0 ENE 13 17 7 9 1027.0 - 0.0
29/08:30pm 6.7 -2.8 6.7 100 0.0 SSE 46 56 25 30 1026.5 - 0.0
29/08:24pm 6.8 -2.2 6.6 99 0.1 SSE 43 54 23 29 1026.7 - 0.0

Other Formats:

Comma delimited format used in spreadsheet applications
http://www.bom.gov.au/fwo/IDT60801/IDT60801.94962.axf

JavaScript Object Notation format (JSON) in row-major order
http://www.bom.gov.au/fwo/IDT60801/IDT60801.94962.json